createdAt,value
2022-08-09T00:01:52.586Z,96.12
2022-08-09T00:05:00.869Z,96.25
2022-08-09T00:08:32.543Z,96.42
2022-08-09T00:12:02.739Z,96.26
2022-08-09T00:14:57.801Z,96.29
2022-08-09T00:18:11.383Z,95.99
2022-08-09T00:21:14.490Z,96.34
2022-08-09T00:24:18.655Z,96.03
2022-08-09T00:27:22.060Z,96.18
2022-08-09T00:30:26.904Z,96.07
2022-08-09T00:33:48.777Z,96.58
2022-08-09T00:36:52.079Z,96.02
2022-08-09T00:40:12.713Z,96.13
2022-08-09T00:44:10.556Z,96.65
2022-08-09T00:46:56.203Z,96.06
2022-08-09T00:50:01.448Z,96.13
2022-08-09T00:53:10.379Z,96.70
2022-08-09T00:56:15.991Z,96.00
2022-08-09T00:59:20.198Z,96.14
2022-08-09T01:02:48.137Z,96.21
2022-08-09T01:06:17.791Z,96.08
2022-08-09T01:09:36.737Z,96.38
2022-08-09T01:12:43.607Z,96.18
2022-08-09T01:15:52.598Z,95.96
2022-08-09T01:19:01.969Z,96.47
2022-08-09T01:22:34.801Z,96.04
2022-08-09T01:25:51.105Z,96.17
2022-08-09T01:28:56.750Z,96.45
2022-08-09T01:32:33.571Z,96.33
2022-08-09T01:35:38.273Z,96.66
2022-08-09T01:38:47.318Z,96.48
2022-08-09T01:41:53.579Z,96.70
2022-08-09T01:45:04.203Z,96.51
2022-08-09T01:48:10.060Z,96.75
2022-08-09T01:51:22.753Z,96.94
2022-08-09T01:54:32.820Z,96.68
2022-08-09T01:57:44.226Z,97.09
2022-08-09T02:00:50.697Z,97.19
2022-08-09T02:03:55.881Z,97.10
2022-08-09T02:07:18.026Z,97.49
2022-08-09T02:10:37.626Z,97.38
2022-08-09T02:13:41.020Z,97.47
2022-08-09T02:16:59.741Z,97.61
2022-08-09T02:20:08.989Z,97.93
2022-08-09T02:23:13.781Z,97.81
2022-08-09T02:26:27.162Z,97.92
2022-08-09T02:29:33.019Z,98.38
2022-08-09T02:32:41.021Z,98.35
2022-08-09T02:36:02.680Z,98.31
2022-08-09T02:39:14.429Z,98.51
2022-08-09T02:42:32.086Z,98.57
2022-08-09T02:45:39.866Z,99.02
2022-08-09T02:48:46.317Z,98.86
2022-08-09T02:51:55.181Z,98.75
2022-08-09T02:54:58.713Z,99.11
2022-08-09T02:58:36.350Z,99.36
2022-08-09T03:05:08.322Z,100.00
2022-08-09T03:08:21.104Z,99.55
2022-08-09T03:11:29.825Z,100.00
2022-08-09T03:14:50.804Z,99.58
2022-08-09T03:17:58.958Z,99.88
2022-08-09T03:21:03.105Z,100.00
2022-08-09T03:24:05.399Z,100.00
2022-08-09T03:27:09.613Z,100.00
2022-08-09T03:30:29.570Z,100.00
2022-08-09T03:33:54.395Z,100.00
2022-08-09T03:37:02.455Z,100.00
2022-08-09T03:40:21.329Z,100.00
2022-08-09T03:43:31.648Z,100.00
2022-08-09T03:46:34.678Z,100.00
2022-08-09T03:49:37.705Z,100.00
2022-08-09T03:52:42.706Z,100.00
2022-08-09T03:55:49.515Z,100.00
2022-08-09T03:58:51.699Z,100.00
2022-08-09T04:01:59.100Z,100.00
2022-08-09T04:05:06.407Z,100.00
2022-08-09T04:08:09.132Z,100.00
2022-08-09T04:11:12.054Z,100.00
2022-08-09T04:14:53.270Z,100.00
2022-08-09T04:17:43.828Z,100.00
2022-08-09T04:20:49.496Z,100.00
2022-08-09T04:23:54.251Z,100.00
2022-08-09T04:27:00.219Z,100.00
2022-08-09T04:30:02.484Z,100.00
2022-08-09T04:33:04.890Z,100.00
2022-08-09T04:36:09.964Z,100.00
2022-08-09T04:39:13.627Z,100.00
2022-08-09T04:42:15.753Z,100.00
2022-08-09T04:45:20.691Z,100.00
2022-08-09T04:48:23.890Z,100.00
2022-08-09T04:51:35.937Z,100.00
2022-08-09T04:54:38.947Z,100.00
2022-08-09T04:57:58.367Z,100.00
2022-08-09T05:01:03.389Z,100.00
2022-08-09T05:04:05.849Z,100.00
2022-08-09T05:07:07.777Z,100.00
2022-08-09T05:10:21.142Z,100.00
2022-08-09T05:13:25.651Z,100.00
2022-08-09T05:16:32.005Z,100.00
2022-08-09T05:19:45.976Z,100.00
2022-08-09T05:23:57.089Z,100.00
2022-08-09T05:26:16.081Z,100.00
2022-08-09T05:29:31.385Z,100.00
2022-08-09T05:32:37.413Z,100.00
2022-08-09T05:35:46.878Z,100.00
2022-08-09T05:38:51.948Z,100.00
2022-08-09T05:41:54.048Z,100.00
2022-08-09T05:44:57.120Z,100.00
2022-08-09T05:48:01.377Z,100.00
2022-08-09T05:51:29.821Z,100.00
2022-08-09T05:54:25.434Z,100.00
2022-08-09T05:57:55.829Z,100.00
2022-08-09T06:00:49.555Z,100.00
2022-08-09T06:03:58.186Z,100.00
2022-08-09T06:07:00.608Z,100.00
2022-08-09T06:10:03.301Z,100.00
2022-08-09T06:13:12.073Z,100.00
2022-08-09T06:16:20.424Z,100.00
2022-08-09T06:19:22.409Z,100.00
2022-08-09T06:22:29.075Z,100.00
2022-08-09T06:25:31.706Z,99.59
2022-08-09T06:28:36.428Z,97.76
2022-08-09T06:32:08.557Z,96.08
2022-08-09T06:35:01.166Z,95.29
2022-08-09T06:38:08.522Z,93.55
2022-08-09T06:41:19.035Z,92.77
2022-08-09T06:44:22.406Z,90.94
2022-08-09T06:47:25.791Z,89.10
2022-08-09T06:50:41.433Z,87.99
2022-08-09T06:53:43.413Z,84.01
2022-08-09T06:56:46.482Z,83.80
2022-08-09T07:00:52.618Z,84.10
2022-08-09T07:03:11.848Z,83.32
2022-08-09T07:06:13.795Z,79.11
2022-08-09T07:09:54.198Z,77.33
2022-08-09T07:12:41.368Z,75.90
2022-08-09T07:16:35.282Z,76.05
2022-08-09T07:19:06.731Z,74.41
2022-08-09T07:22:10.897Z,72.29
2022-08-09T07:25:13.577Z,71.66
2022-08-09T07:28:19.290Z,70.28
2022-08-09T07:31:30.506Z,69.54
2022-08-09T07:34:40.712Z,69.10
2022-08-09T07:37:46.199Z,65.17
2022-08-09T07:41:00.897Z,65.84
2022-08-09T07:44:13.495Z,63.75
2022-08-09T07:47:16.313Z,61.83
2022-08-09T07:50:33.004Z,62.14
2022-08-09T07:54:05.853Z,63.22
2022-08-09T07:57:02.036Z,61.18
2022-08-09T08:00:09.909Z,61.47
2022-08-09T08:03:15.606Z,60.05
2022-08-09T08:06:21.086Z,58.50
2022-08-09T08:09:38.664Z,57.83
2022-08-09T08:12:46.533Z,58.80
2022-08-09T08:15:48.861Z,57.85
2022-08-09T08:18:51.653Z,55.81
2022-08-09T08:21:54.885Z,55.40
2022-08-09T08:24:57.613Z,54.69
2022-08-09T08:27:59.672Z,53.67
2022-08-09T08:31:13.995Z,52.45
2022-08-09T08:34:20.937Z,52.73
2022-08-09T08:37:41.467Z,51.55
2022-08-09T08:40:53.197Z,49.86
2022-08-09T08:43:58.177Z,52.32
2022-08-09T08:47:12.288Z,50.52
2022-08-09T08:50:18.193Z,49.46
2022-08-09T08:53:21.869Z,47.75
2022-08-09T08:56:25.079Z,47.23
2022-08-09T08:59:46.850Z,48.22
2022-08-09T09:02:52.825Z,47.05
2022-08-09T09:06:01.145Z,46.47
2022-08-09T09:09:21.104Z,46.06
2022-08-09T09:12:34.141Z,44.68
2022-08-09T09:15:38.847Z,46.06
2022-08-09T09:18:48.116Z,44.01
2022-08-09T09:22:03.848Z,43.77
2022-08-09T09:26:05.036Z,44.63
2022-08-09T09:28:39.179Z,43.52
2022-08-09T09:32:05.989Z,43.39
2022-08-09T09:35:17.878Z,43.51
2022-08-09T09:38:27.818Z,44.73
2022-08-09T09:41:48.740Z,45.43
2022-08-09T09:45:03.703Z,46.08
2022-08-09T09:48:06.056Z,43.05
2022-08-09T09:51:11.603Z,40.42
2022-08-09T09:54:23.084Z,41.38
2022-08-09T09:58:02.411Z,42.18
2022-08-09T10:00:53.683Z,40.19
2022-08-09T10:03:59.321Z,38.76
2022-08-09T10:07:03.500Z,38.66
2022-08-09T10:10:12.036Z,37.27
2022-08-09T10:13:14.044Z,39.21
2022-08-09T10:16:58.044Z,38.92
2022-08-09T10:20:04.040Z,37.57
2022-08-09T10:23:21.192Z,40.12
2022-08-09T10:26:26.786Z,40.84
2022-08-09T10:30:28.381Z,36.88
2022-08-09T10:32:54.318Z,38.63
2022-08-09T10:36:00.825Z,38.13
2022-08-09T10:39:05.942Z,39.23
2022-08-09T10:42:18.968Z,39.09
2022-08-09T10:45:22.178Z,40.13
2022-08-09T10:48:37.648Z,39.07
2022-08-09T10:51:55.105Z,39.48
2022-08-09T10:55:26.874Z,39.26
2022-08-09T10:58:34.791Z,40.76
2022-08-09T11:03:15.623Z,40.07
2022-08-09T11:05:24.886Z,38.48
2022-08-09T11:08:47.236Z,37.53
2022-08-09T11:12:17.422Z,38.45
2022-08-09T11:15:19.657Z,35.84
2022-08-09T11:18:55.293Z,38.16
2022-08-09T11:22:10.608Z,37.34
2022-08-09T11:25:47.235Z,36.39
2022-08-09T11:28:55.868Z,36.09
2022-08-09T11:31:59.194Z,36.07
2022-08-09T11:35:06.887Z,36.21
2022-08-09T11:38:32.275Z,33.53
2022-08-09T11:41:38.130Z,34.41
2022-08-09T11:44:46.628Z,35.07
2022-08-09T11:47:54.555Z,34.62
2022-08-09T11:51:38.050Z,37.38
2022-08-09T11:54:33.235Z,34.08
2022-08-09T11:58:00.704Z,31.55
2022-08-09T12:01:15.736Z,30.96
2022-08-09T12:04:32.355Z,33.00
2022-08-09T12:07:42.026Z,32.58
2022-08-09T12:10:48.337Z,29.62
2022-08-09T12:14:07.968Z,31.40
2022-08-09T12:17:23.330Z,30.79
2022-08-09T12:20:42.194Z,30.61
2022-08-09T12:23:48.031Z,30.82
2022-08-09T12:29:12.231Z,25.79
2022-08-09T12:30:43.775Z,27.46
2022-08-09T12:33:58.687Z,29.41
2022-08-09T12:37:21.326Z,29.56
2022-08-09T12:40:28.718Z,28.05
2022-08-09T12:44:05.674Z,27.74
2022-08-09T12:46:54.642Z,28.03
2022-08-09T12:50:15.114Z,29.03
2022-08-09T12:53:37.647Z,28.62
2022-08-09T12:56:51.391Z,28.75
2022-08-09T13:00:25.446Z,26.92
2022-08-09T13:03:53.271Z,27.69
2022-08-09T13:06:56.305Z,26.10
2022-08-09T13:10:02.867Z,25.81
2022-08-09T13:13:11.034Z,25.91
2022-08-09T13:16:17.587Z,25.32
2022-08-09T13:20:09.444Z,25.10
2022-08-09T13:23:04.927Z,26.83
2022-08-09T13:26:42.387Z,26.53
2022-08-09T13:30:03.780Z,27.41
2022-08-09T13:33:23.552Z,26.97
2022-08-09T13:36:41.667Z,25.21
2022-08-09T13:41:52.159Z,23.20
2022-08-09T13:43:09.479Z,25.30
2022-08-09T13:47:16.067Z,24.11
2022-08-09T13:49:39.886Z,25.57
2022-08-09T13:52:57.625Z,23.73
2022-08-09T13:55:59.632Z,22.48
2022-08-09T13:59:01.639Z,22.63
2022-08-09T14:02:04.890Z,21.45
2022-08-09T14:05:07.091Z,21.43
2022-08-09T14:08:10.429Z,19.17
2022-08-09T14:11:16.079Z,17.37
2022-08-09T14:14:26.257Z,17.30
2022-08-09T14:18:06.758Z,16.60
2022-08-09T14:20:52.791Z,15.90
2022-08-09T14:23:56.940Z,16.88
2022-08-09T14:27:00.423Z,15.56
2022-08-09T14:30:36.256Z,14.87
2022-08-09T14:33:25.567Z,15.19
2022-08-09T14:36:35.295Z,14.93
2022-08-09T14:39:47.716Z,15.24
2022-08-09T14:42:50.629Z,14.42
2022-08-09T14:46:55.587Z,14.60
2022-08-09T14:49:16.093Z,15.41
2022-08-09T14:52:18.240Z,15.32
2022-08-09T14:55:21.213Z,15.05
2022-08-09T14:58:23.330Z,14.92
2022-08-09T15:01:25.353Z,14.61
2022-08-09T15:04:27.897Z,14.69
2022-08-09T15:07:31.303Z,14.27
2022-08-09T15:10:38.215Z,14.48
2022-08-09T15:13:56.445Z,14.01
2022-08-09T15:17:04.841Z,14.13
2022-08-09T15:20:11.896Z,13.80
2022-08-09T15:24:02.571Z,13.69
2022-08-09T15:26:46.001Z,13.47
2022-08-09T15:30:55.747Z,13.53
2022-08-09T15:33:10.548Z,14.31
2022-08-09T15:36:28.833Z,13.61
2022-08-09T15:39:43.920Z,14.62
2022-08-09T15:42:54.675Z,13.66
2022-08-09T15:46:28.595Z,13.00
2022-08-09T15:49:21.767Z,13.56
2022-08-09T15:52:25.723Z,13.71
2022-08-09T15:55:27.849Z,12.66
2022-08-09T15:58:29.973Z,13.33
2022-08-09T16:01:35.234Z,13.92
2022-08-09T16:04:56.677Z,18.62
2022-08-09T16:07:59.022Z,22.33
2022-08-09T16:11:04.051Z,25.32
2022-08-09T16:14:09.745Z,28.97
2022-08-09T16:17:17.090Z,30.00
2022-08-09T16:20:19.306Z,29.55
2022-08-09T16:23:29.732Z,30.26
2022-08-09T16:26:36.446Z,31.10
2022-08-09T16:29:49.770Z,31.37
2022-08-09T16:33:09.136Z,31.69
2022-08-09T16:36:16.315Z,32.94
2022-08-09T16:39:20.854Z,32.58
2022-08-09T16:42:27.553Z,34.09
2022-08-09T16:45:29.642Z,33.40
2022-08-09T16:48:41.093Z,32.95
2022-08-09T16:51:54.022Z,33.48
2022-08-09T16:54:57.459Z,32.84
2022-08-09T16:58:10.137Z,36.28
2022-08-09T17:01:13.629Z,35.54
2022-08-09T17:04:25.873Z,36.86
2022-08-09T17:08:43.201Z,36.62
2022-08-09T17:10:53.660Z,39.51
2022-08-09T17:14:01.170Z,42.36
2022-08-09T17:17:23.341Z,40.89
2022-08-09T17:20:32.592Z,43.03
2022-08-09T17:24:20.014Z,45.42
2022-08-09T17:27:01.747Z,46.85
2022-08-09T17:30:12.844Z,49.17
2022-08-09T17:33:22.895Z,50.25
2022-08-09T17:36:25.099Z,50.51
2022-08-09T17:39:28.037Z,52.26
2022-08-09T17:42:50.066Z,53.14
2022-08-09T17:46:03.995Z,54.17
2022-08-09T17:49:07.581Z,54.33
2022-08-09T17:52:20.698Z,55.05
2022-08-09T17:55:24.635Z,55.53
2022-08-09T17:58:46.988Z,55.80
2022-08-09T18:02:11.337Z,55.95
2022-08-09T18:05:16.622Z,56.42
2022-08-09T18:08:18.618Z,56.24
2022-08-09T18:11:24.519Z,56.42
2022-08-09T18:14:26.878Z,56.60
2022-08-09T18:18:02.153Z,56.68
2022-08-09T18:20:55.624Z,56.48
2022-08-09T18:24:10.269Z,57.24
2022-08-09T18:27:18.763Z,57.79
2022-08-09T18:30:48.920Z,58.56
2022-08-09T18:33:53.607Z,58.34
2022-08-09T18:36:58.633Z,59.03
2022-08-09T18:40:03.896Z,59.23
2022-08-09T18:43:07.133Z,59.65
2022-08-09T18:46:51.089Z,60.44
2022-08-09T18:49:32.337Z,60.38
2022-08-09T18:52:46.781Z,60.77
2022-08-09T18:55:57.033Z,61.14
2022-08-09T18:59:07.538Z,61.69
2022-08-09T19:02:09.536Z,61.95
2022-08-09T19:05:19.585Z,62.00
2022-08-09T19:08:31.143Z,62.69
2022-08-09T19:11:35.270Z,62.61
2022-08-09T19:14:40.421Z,62.76
2022-08-09T19:17:54.805Z,62.65
2022-08-09T19:21:00.839Z,63.05
2022-08-09T19:24:37.016Z,62.94
2022-08-09T19:27:28.759Z,63.00
2022-08-09T19:30:32.239Z,63.06
2022-08-09T19:33:34.622Z,63.48
2022-08-09T19:36:36.671Z,63.45
2022-08-09T19:40:02.625Z,64.24
2022-08-09T19:43:00.564Z,64.12
2022-08-09T19:46:04.205Z,64.36
2022-08-09T19:50:06.885Z,65.08
2022-08-09T19:52:29.615Z,64.92
2022-08-09T19:56:02.106Z,64.99
2022-08-09T19:59:18.505Z,65.09
2022-08-09T20:04:11.624Z,65.40
2022-08-09T20:05:46.288Z,65.95
2022-08-09T20:08:49.241Z,66.13
2022-08-09T20:11:53.103Z,66.94
2022-08-09T20:14:55.932Z,67.01
2022-08-09T20:17:58.886Z,67.04
2022-08-09T20:21:01.908Z,67.04
2022-08-09T20:24:04.683Z,67.44
2022-08-09T20:27:08.473Z,67.36
2022-08-09T20:30:11.930Z,67.17
2022-08-09T20:33:14.418Z,67.48
2022-08-09T20:36:20.246Z,67.83
2022-08-09T20:40:14.101Z,67.87
2022-08-09T20:42:46.504Z,67.84
2022-08-09T20:46:15.458Z,68.72
2022-08-09T20:49:23.593Z,69.08
2022-08-09T20:52:27.475Z,69.02
2022-08-09T20:55:29.877Z,69.49
2022-08-09T20:58:54.646Z,69.54
2022-08-09T21:02:00.705Z,69.28
2022-08-09T21:05:56.732Z,69.43
2022-08-09T21:08:36.299Z,69.19
2022-08-09T21:15:03.020Z,69.93
2022-08-09T21:18:21.016Z,69.85
2022-08-09T21:21:53.132Z,70.32
2022-08-09T21:25:08.292Z,70.30
2022-08-09T21:28:15.936Z,70.56
2022-08-09T21:31:19.685Z,70.69
2022-08-09T21:34:29.250Z,71.18
2022-08-09T21:37:35.488Z,71.55
2022-08-09T21:40:50.495Z,71.67
2022-08-09T21:43:56.879Z,72.10
2022-08-09T21:47:00.392Z,72.17
2022-08-09T21:50:05.068Z,72.43
2022-08-09T21:53:24.102Z,72.56
2022-08-09T21:56:42.770Z,72.69
2022-08-09T21:59:46.504Z,73.02
2022-08-09T22:02:51.143Z,72.79
2022-08-09T22:06:01.215Z,73.10
2022-08-09T22:09:03.996Z,73.47
2022-08-09T22:12:18.651Z,73.35
2022-08-09T22:15:34.763Z,73.90
2022-08-09T22:18:44.049Z,74.17
2022-08-09T22:21:56.583Z,73.68
2022-08-09T22:26:08.494Z,73.79
2022-08-09T22:28:32.582Z,74.23
2022-08-09T22:31:50.398Z,74.44
2022-08-09T22:35:02.580Z,74.60
2022-08-09T22:38:08.593Z,74.95
2022-08-09T22:41:10.508Z,74.78
2022-08-09T22:44:15.043Z,75.01
2022-08-09T22:48:16.723Z,74.73
2022-08-09T22:50:38.963Z,75.08
2022-08-09T22:53:58.679Z,74.81
2022-08-09T22:57:03.514Z,75.54
2022-08-09T23:00:06.195Z,75.73
2022-08-09T23:03:14.105Z,75.62
2022-08-09T23:06:54.519Z,75.71
2022-08-09T23:09:56.463Z,76.17
2022-08-09T23:12:59.151Z,76.41
2022-08-09T23:16:02.998Z,76.46
2022-08-09T23:19:05.763Z,76.93
2022-08-09T23:22:07.714Z,77.07
2022-08-09T23:25:11.250Z,77.39
2022-08-09T23:28:15.743Z,77.50
2022-08-09T23:31:18.040Z,77.79
2022-08-09T23:34:20.044Z,77.98
2022-08-09T23:37:31.457Z,77.81
2022-08-09T23:40:33.699Z,77.61
2022-08-09T23:43:35.703Z,77.49
2022-08-09T23:46:37.669Z,77.61
2022-08-09T23:49:39.600Z,77.45
2022-08-09T23:52:41.494Z,77.72
2022-08-09T23:55:49.882Z,78.27
2022-08-09T23:58:56.892Z,78.46
